sensor_id;sensor_type;location;lat;lon;timestamp;pressure;altitude;pressure_sealevel;temperature;humidity
12172;BME280;6149;52.418;13.668;2024-02-26T00:01:44;100015.63;;;0.10;100.00
12172;BME280;6149;52.418;13.668;2024-02-26T00:04:11;100021.88;;;0.01;100.00
12172;BME280;6149;52.418;13.668;2024-02-26T00:06:38;100022.91;;;-0.06;100.00
12172;BME280;6149;52.418;13.668;2024-02-26T00:09:06;100016.03;;;-0.10;100.00
12172;BME280;6149;52.418;13.668;2024-02-26T00:11:32;100002.25;;;-0.14;100.00
12172;BME280;6149;52.418;13.668;2024-02-26T00:14:00;100000.56;;;-0.16;100.00
12172;BME280;6149;52.418;13.668;2024-02-26T00:16:27;99994.56;;;-0.20;100.00
12172;BME280;6149;52.418;13.668;2024-02-26T00:18:53;99997.19;;;-0.21;100.00
12172;BME280;6149;52.418;13.668;2024-02-26T00:21:20;100004.13;;;-0.22;100.00
12172;BME280;6149;52.418;13.668;2024-02-26T00:23:46;99998.09;;;-0.22;100.00
12172;BME280;6149;52.418;13.668;2024-02-26T00:26:13;99990.31;;;-0.24;100.00
12172;BME280;6149;52.418;13.668;2024-02-26T00:28:40;99980.84;;;-0.26;100.00
12172;BME280;6149;52.418;13.668;2024-02-26T00:31:08;99974.78;;;-0.27;100.00
12172;BME280;6149;52.418;13.668;2024-02-26T00:33:34;99986.88;;;-0.26;100.00
12172;BME280;6149;52.418;13.668;2024-02-26T00:36:01;99979.09;;;-0.26;100.00
12172;BME280;6149;52.418;13.668;2024-02-26T00:38:28;99984.22;;;-0.23;100.00
12172;BME280;6149;52.418;13.668;2024-02-26T00:40:54;99986.03;;;-0.26;100.00
12172;BME280;6149;52.418;13.668;2024-02-26T00:43:21;99977.47;;;-0.31;100.00
12172;BME280;6149;52.418;13.668;2024-02-26T00:45:47;99981.00;;;-0.36;100.00
12172;BME280;6149;52.418;13.668;2024-02-26T00:48:15;99981.09;;;-0.39;100.00
12172;BME280;6149;52.418;13.668;2024-02-26T00:50:42;99968.16;;;-0.42;100.00
12172;BME280;6149;52.418;13.668;2024-02-26T00:53:09;99965.56;;;-0.42;100.00
12172;BME280;6149;52.418;13.668;2024-02-26T00:55:35;99960.38;;;-0.42;100.00
12172;BME280;6149;52.418;13.668;2024-02-26T00:58:02;99967.34;;;-0.44;100.00
12172;BME280;6149;52.418;13.668;2024-02-26T01:00:28;99959.53;;;-0.44;100.00
12172;BME280;6149;52.418;13.668;2024-02-26T01:02:55;99959.53;;;-0.42;100.00
12172;BME280;6149;52.418;13.668;2024-02-26T01:05:23;99963.91;;;-0.46;100.00
12172;BME280;6149;52.418;13.668;2024-02-26T01:07:50;99970.91;;;-0.49;100.00
12172;BME280;6149;52.418;13.668;2024-02-26T01:10:16;99965.72;;;-0.51;100.00
12172;BME280;6149;52.418;13.668;2024-02-26T01:12:43;99968.34;;;-0.52;100.00
12172;BME280;6149;52.418;13.668;2024-02-26T01:15:09;99960.59;;;-0.54;100.00
12172;BME280;6149;52.418;13.668;2024-02-26T01:17:36;99965.84;;;-0.57;100.00
12172;BME280;6149;52.418;13.668;2024-02-26T01:20:04;99965.88;;;-0.58;100.00
12172;BME280;6149;52.418;13.668;2024-02-26T01:22:35;99965.91;;;-0.60;100.00
12172;BME280;6149;52.418;13.668;2024-02-26T01:25:01;99959.00;;;-0.61;100.00
12172;BME280;6149;52.418;13.668;2024-02-26T01:27:28;99961.59;;;-0.61;100.00
12172;BME280;6149;52.418;13.668;2024-02-26T01:29:54;99960.72;;;-0.61;100.00
12172;BME280;6149;52.418;13.668;2024-02-26T01:32:21;99968.56;;;-0.64;100.00
12172;BME280;6149;52.418;13.668;2024-02-26T01:34:47;99961.72;;;-0.69;100.00
12172;BME280;6149;52.418;13.668;2024-02-26T01:37:14;99958.25;;;-0.68;100.00
12172;BME280;6149;52.418;13.668;2024-02-26T01:39:41;99962.59;;;-0.70;100.00
12172;BME280;6149;52.418;13.668;2024-02-26T01:42:08;99959.19;;;-0.72;100.00
12172;BME280;6149;52.418;13.668;2024-02-26T01:44:35;99951.47;;;-0.75;100.00
12172;BME280;6149;52.418;13.668;2024-02-26T01:47:04;99954.09;;;-0.76;100.00
12172;BME280;6149;52.418;13.668;2024-02-26T01:49:32;99948.09;;;-0.80;100.00
12172;BME280;6149;52.418;13.668;2024-02-26T01:51:59;99952.44;;;-0.80;100.00
12172;BME280;6149;52.418;13.668;2024-02-26T01:54:26;99956.81;;;-0.84;100.00
12172;BME280;6149;52.418;13.668;2024-02-26T01:56:53;99957.72;;;-0.86;100.00
12172;BME280;6149;52.418;13.668;2024-02-26T01:59:20;99956.88;;;-0.87;100.00
12172;BME280;6149;52.418;13.668;2024-02-26T02:01:53;99966.41;;;-0.89;100.00
12172;BME280;6149;52.418;13.668;2024-02-26T02:04:22;99961.25;;;-0.90;100.00
12172;BME280;6149;52.418;13.668;2024-02-26T02:06:50;99961.31;;;-0.93;100.00
12172;BME280;6149;52.418;13.668;2024-02-26T02:09:17;99963.91;;;-0.95;100.00
12172;BME280;6149;52.418;13.668;2024-02-26T02:11:44;99968.25;;;-0.95;100.00
12172;BME280;6149;52.418;13.668;2024-02-26T02:14:12;99973.47;;;-0.97;100.00
12172;BME280;6149;52.418;13.668;2024-02-26T02:16:39;99970.88;;;-0.97;100.00
12172;BME280;6149;52.418;13.668;2024-02-26T02:19:06;99980.38;;;-0.97;100.00
12172;BME280;6149;52.418;13.668;2024-02-26T02:21:33;99973.50;;;-0.98;100.00
12172;BME280;6149;52.418;13.668;2024-02-26T02:24:00;99976.97;;;-0.99;100.00
12172;BME280;6149;52.418;13.668;2024-02-26T02:26:27;99973.50;;;-0.98;100.00
12172;BME280;6149;52.418;13.668;2024-02-26T02:28:53;99969.19;;;-0.99;100.00
12172;BME280;6149;52.418;13.668;2024-02-26T02:31:20;99966.63;;;-1.03;100.00
12172;BME280;6149;52.418;13.668;2024-02-26T02:33:46;99970.09;;;-1.02;100.00
12172;BME280;6149;52.418;13.668;2024-02-26T02:36:13;99972.72;;;-1.05;100.00
12172;BME280;6149;52.418;13.668;2024-02-26T02:38:49;99972.75;;;-1.07;100.00
12172;BME280;6149;52.418;13.668;2024-02-26T02:41:16;99965.00;;;-1.10;100.00
12172;BME280;6149;52.418;13.668;2024-02-26T02:43:44;99965.94;;;-1.12;100.00
12172;BME280;6149;52.418;13.668;2024-02-26T02:46:10;99959.91;;;-1.13;100.00
12172;BME280;6149;52.418;13.668;2024-02-26T02:48:37;99950.44;;;-1.15;100.00
12172;BME280;6149;52.418;13.668;2024-02-26T02:51:04;99953.88;;;-1.15;100.00
12172;BME280;6149;52.418;13.668;2024-02-26T02:53:30;99953.91;;;-1.16;100.00
12172;BME280;6149;52.418;13.668;2024-02-26T02:55:58;99957.38;;;-1.17;100.00
12172;BME280;6149;52.418;13.668;2024-02-26T02:58:25;99960.84;;;-1.18;100.00
12172;BME280;6149;52.418;13.668;2024-02-26T03:00:51;99961.75;;;-1.19;100.00
12172;BME280;6149;52.418;13.668;2024-02-26T03:03:20;99959.19;;;-1.22;100.00
12172;BME280;6149;52.418;13.668;2024-02-26T03:05:49;99968.72;;;-1.23;100.00
12172;BME280;6149;52.418;13.668;2024-02-26T03:08:15;99961.81;;;-1.24;100.00
12172;BME280;6149;52.418;13.668;2024-02-26T03:10:42;99967.84;;;-1.23;100.00
12172;BME280;6149;52.418;13.668;2024-02-26T03:13:10;99970.44;;;-1.23;100.00
12172;BME280;6149;52.418;13.668;2024-02-26T03:15:36;99977.38;;;-1.25;100.00
12172;BME280;6149;52.418;13.668;2024-02-26T03:18:03;99967.06;;;-1.28;100.00
12172;BME280;6149;52.418;13.668;2024-02-26T03:20:30;99975.69;;;-1.28;100.00
12172;BME280;6149;52.418;13.668;2024-02-26T03:22:56;99967.03;;;-1.27;100.00
12172;BME280;6149;52.418;13.668;2024-02-26T03:25:23;99967.91;;;-1.28;100.00
12172;BME280;6149;52.418;13.668;2024-02-26T03:27:50;99967.94;;;-1.29;100.00
12172;BME280;6149;52.418;13.668;2024-02-26T03:30:18;99967.09;;;-1.30;100.00
12172;BME280;6149;52.418;13.668;2024-02-26T03:32:44;99960.22;;;-1.32;100.00
12172;BME280;6149;52.418;13.668;2024-02-26T03:35:12;99962.81;;;-1.34;100.00
12172;BME280;6149;52.418;13.668;2024-02-26T03:37:38;99957.66;;;-1.36;100.00
12172;BME280;6149;52.418;13.668;2024-02-26T03:40:06;99956.81;;;-1.36;100.00
12172;BME280;6149;52.418;13.668;2024-02-26T03:42:34;99955.97;;;-1.38;100.00
12172;BME280;6149;52.418;13.668;2024-02-26T03:45:00;99958.56;;;-1.40;100.00
12172;BME280;6149;52.418;13.668;2024-02-26T03:47:28;99965.53;;;-1.42;100.00
12172;BME280;6149;52.418;13.668;2024-02-26T03:49:55;99967.25;;;-1.42;100.00
12172;BME280;6149;52.418;13.668;2024-02-26T03:52:21;99964.69;;;-1.44;100.00
12172;BME280;6149;52.418;13.668;2024-02-26T03:54:48;99966.44;;;-1.44;100.00
12172;BME280;6149;52.418;13.668;2024-02-26T03:57:15;99969.00;;;-1.44;100.00
12172;BME280;6149;52.418;13.668;2024-02-26T03:59:41;99970.78;;;-1.46;100.00
12172;BME280;6149;52.418;13.668;2024-02-26T04:02:08;99972.53;;;-1.48;100.00
12172;BME280;6149;52.418;13.668;2024-02-26T04:04:36;99968.19;;;-1.48;100.00
12172;BME280;6149;52.418;13.668;2024-02-26T04:07:03;99965.66;;;-1.49;100.00
12172;BME280;6149;52.418;13.668;2024-02-26T04:09:31;99964.81;;;-1.50;100.00
12172;BME280;6149;52.418;13.668;2024-02-26T04:11:57;99965.69;;;-1.52;100.00
12172;BME280;6149;52.418;13.668;2024-02-26T04:14:24;99964.00;;;-1.53;100.00
12172;BME280;6149;52.418;13.668;2024-02-26T04:16:51;99973.50;;;-1.54;100.00
12172;BME280;6149;52.418;13.668;2024-02-26T04:19:19;99980.44;;;-1.56;100.00
12172;BME280;6149;52.418;13.668;2024-02-26T04:21:47;99983.91;;;-1.57;100.00
12172;BME280;6149;52.418;13.668;2024-02-26T04:24:14;99982.19;;;-1.58;100.00
12172;BME280;6149;52.418;13.668;2024-02-26T04:26:41;99988.25;;;-1.59;100.00
12172;BME280;6149;52.418;13.668;2024-02-26T04:29:07;99993.47;;;-1.60;100.00
12172;BME280;6149;52.418;13.668;2024-02-26T04:31:34;99989.16;;;-1.61;100.00
12172;BME280;6149;52.418;13.668;2024-02-26T04:34:00;100004.72;;;-1.63;100.00
12172;BME280;6149;52.418;13.668;2024-02-26T04:36:27;100001.28;;;-1.63;100.00
12172;BME280;6149;52.418;13.668;2024-02-26T04:38:55;100005.59;;;-1.62;100.00
12172;BME280;6149;52.418;13.668;2024-02-26T04:41:21;99997.81;;;-1.62;100.00
12172;BME280;6149;52.418;13.668;2024-02-26T04:43:48;100002.13;;;-1.61;100.00
12172;BME280;6149;52.418;13.668;2024-02-26T04:46:14;100006.41;;;-1.60;100.00
12172;BME280;6149;52.418;13.668;2024-02-26T04:48:41;100015.03;;;-1.58;100.00
12172;BME280;6149;52.418;13.668;2024-02-26T04:51:08;100014.16;;;-1.57;100.00
12172;BME280;6149;52.418;13.668;2024-02-26T04:53:34;100025.38;;;-1.57;100.00
12172;BME280;6149;52.418;13.668;2024-02-26T04:56:03;100023.66;;;-1.56;100.00
12172;BME280;6149;52.418;13.668;2024-02-26T04:58:30;100034.88;;;-1.57;100.00
12172;BME280;6149;52.418;13.668;2024-02-26T05:00:56;100039.22;;;-1.58;100.00
12172;BME280;6149;52.418;13.668;2024-02-26T05:03:23;100027.16;;;-1.62;100.00
12172;BME280;6149;52.418;13.668;2024-02-26T05:05:49;100020.28;;;-1.63;100.00
12172;BME280;6149;52.418;13.668;2024-02-26T05:08:15;100024.59;;;-1.63;100.00
12172;BME280;6149;52.418;13.668;2024-02-26T05:10:42;100012.50;;;-1.64;100.00
12172;BME280;6149;52.418;13.668;2024-02-26T05:13:10;100025.47;;;-1.64;100.00
12172;BME280;6149;52.418;13.668;2024-02-26T05:15:36;100025.47;;;-1.64;100.00
12172;BME280;6149;52.418;13.668;2024-02-26T05:18:03;100021.16;;;-1.64;100.00
12172;BME280;6149;52.418;13.668;2024-02-26T05:20:30;100020.31;;;-1.66;100.00
12172;BME280;6149;52.418;13.668;2024-02-26T05:23:00;100018.56;;;-1.65;100.00
12172;BME280;6149;52.418;13.668;2024-02-26T05:25:27;100031.53;;;-1.65;100.00
12172;BME280;6149;52.418;13.668;2024-02-26T05:27:53;100028.06;;;-1.64;100.00
12172;BME280;6149;52.418;13.668;2024-02-26T05:30:21;100031.53;;;-1.65;100.00
12172;BME280;6149;52.418;13.668;2024-02-26T05:32:47;100035.84;;;-1.66;100.00
12172;BME280;6149;52.418;13.668;2024-02-26T05:35:14;100038.47;;;-1.67;100.00
12172;BME280;6149;52.418;13.668;2024-02-26T05:37:41;100041.06;;;-1.67;100.00
12172;BME280;6149;52.418;13.668;2024-02-26T05:40:08;100042.78;;;-1.68;100.00
12172;BME280;6149;52.418;13.668;2024-02-26T05:42:35;100055.78;;;-1.70;100.00
12172;BME280;6149;52.418;13.668;2024-02-26T05:45:02;100052.31;;;-1.70;100.00
12172;BME280;6149;52.418;13.668;2024-02-26T05:47:32;100053.19;;;-1.70;100.00
12172;BME280;6149;52.418;13.668;2024-02-26T05:49:59;100052.34;;;-1.72;100.00
12172;BME280;6149;52.418;13.668;2024-02-26T05:52:26;100053.22;;;-1.73;100.00
12172;BME280;6149;52.418;13.668;2024-02-26T05:54:52;100060.13;;;-1.72;100.00
12172;BME280;6149;52.418;13.668;2024-02-26T05:57:19;100062.72;;;-1.72;100.00
12172;BME280;6149;52.418;13.668;2024-02-26T05:59:45;100067.03;;;-1.74;100.00
12172;BME280;6149;52.418;13.668;2024-02-26T06:02:12;100071.34;;;-1.73;100.00
12172;BME280;6149;52.418;13.668;2024-02-26T06:04:40;100077.41;;;-1.74;100.00
12172;BME280;6149;52.418;13.668;2024-02-26T06:07:06;100069.66;;;-1.75;100.00
12172;BME280;6149;52.418;13.668;2024-02-26T06:09:33;100076.56;;;-1.76;100.00
12172;BME280;6149;52.418;13.668;2024-02-26T06:11:59;100080.03;;;-1.77;100.00
12172;BME280;6149;52.418;13.668;2024-02-26T06:14:26;100072.25;;;-1.77;100.00
12172;BME280;6149;52.418;13.668;2024-02-26T06:16:52;100083.50;;;-1.78;100.00
12172;BME280;6149;52.418;13.668;2024-02-26T06:19:19;100085.22;;;-1.77;100.00
12172;BME280;6149;52.418;13.668;2024-02-26T06:21:47;100094.72;;;-1.76;100.00
12172;BME280;6149;52.418;13.668;2024-02-26T06:24:13;100094.72;;;-1.76;100.00
12172;BME280;6149;52.418;13.668;2024-02-26T06:26:40;100080.88;;;-1.75;100.00
12172;BME280;6149;52.418;13.668;2024-02-26T06:29:06;100085.16;;;-1.72;100.00
12172;BME280;6149;52.418;13.668;2024-02-26T06:31:33;100083.44;;;-1.72;100.00
12172;BME280;6149;52.418;13.668;2024-02-26T06:33:59;100081.69;;;-1.70;100.00
12172;BME280;6149;52.418;13.668;2024-02-26T06:36:26;100080.78;;;-1.67;100.00
12172;BME280;6149;52.418;13.668;2024-02-26T06:38:53;100083.34;;;-1.64;100.00
12172;BME280;6149;52.418;13.668;2024-02-26T06:41:20;100089.34;;;-1.60;100.00
12172;BME280;6149;52.418;13.668;2024-02-26T06:43:52;100090.16;;;-1.54;100.00
12172;BME280;6149;52.418;13.668;2024-02-26T06:46:18;100093.50;;;-1.47;100.00
12172;BME280;6149;52.418;13.668;2024-02-26T06:48:45;100098.59;;;-1.41;100.00
12172;BME280;6149;52.418;13.668;2024-02-26T06:51:11;100103.72;;;-1.37;100.00
12172;BME280;6149;52.418;13.668;2024-02-26T06:53:38;100097.63;;;-1.32;100.00
12172;BME280;6149;52.418;13.668;2024-02-26T06:56:06;100111.41;;;-1.27;100.00
12172;BME280;6149;52.418;13.668;2024-02-26T06:58:32;100113.09;;;-1.23;100.00
12172;BME280;6149;52.418;13.668;2024-02-26T07:00:59;100108.69;;;-1.17;100.00
12172;BME280;6149;52.418;13.668;2024-02-26T07:03:25;100113.81;;;-1.14;100.00
12172;BME280;6149;52.418;13.668;2024-02-26T07:05:52;100120.63;;;-1.08;100.00
12172;BME280;6149;52.418;13.668;2024-02-26T07:08:18;100115.38;;;-1.04;100.00
12172;BME280;6149;52.418;13.668;2024-02-26T07:10:46;100119.66;;;-0.99;100.00
12172;BME280;6149;52.418;13.668;2024-02-26T07:13:14;100124.78;;;-0.95;100.00
12172;BME280;6149;52.418;13.668;2024-02-26T07:15:41;100129.06;;;-0.91;100.00
12172;BME280;6149;52.418;13.668;2024-02-26T07:18:07;100122.91;;;-0.85;100.00
12172;BME280;6149;52.418;13.668;2024-02-26T07:20:34;100126.31;;;-0.80;100.00
12172;BME280;6149;52.418;13.668;2024-02-26T07:23:00;100125.38;;;-0.76;100.00
12172;BME280;6149;52.418;13.668;2024-02-26T07:25:28;100120.97;;;-0.71;100.00
12172;BME280;6149;52.418;13.668;2024-02-26T07:27:54;100120.00;;;-0.65;100.00
12172;BME280;6149;52.418;13.668;2024-02-26T07:30:22;100126.84;;;-0.60;100.00
12172;BME280;6149;52.418;13.668;2024-02-26T07:32:49;100124.16;;;-0.54;100.00
12172;BME280;6149;52.418;13.668;2024-02-26T07:35:17;100128.38;;;-0.47;100.00
12172;BME280;6149;52.418;13.668;2024-02-26T07:37:43;100137.78;;;-0.38;100.00
12172;BME280;6149;52.418;13.668;2024-02-26T07:40:10;100123.72;;;-0.28;100.00
12172;BME280;6149;52.418;13.668;2024-02-26T07:42:38;100125.28;;;-0.18;100.00
12172;BME280;6149;52.418;13.668;2024-02-26T07:45:06;100123.38;;;-0.07;100.00
12172;BME280;6149;52.418;13.668;2024-02-26T07:47:34;100127.47;;;0.05;100.00
12172;BME280;6149;52.418;13.668;2024-02-26T07:50:01;100131.50;;;0.23;100.00
12172;BME280;6149;52.418;13.668;2024-02-26T07:52:27;100123.44;;;0.37;100.00
12172;BME280;6149;52.418;13.668;2024-02-26T07:54:54;100118.84;;;0.48;100.00
12172;BME280;6149;52.418;13.668;2024-02-26T07:57:20;100121.28;;;0.57;100.00
12172;BME280;6149;52.418;13.668;2024-02-26T07:59:46;100128.91;;;0.66;100.00
12172;BME280;6149;52.418;13.668;2024-02-26T08:02:14;100114.75;;;0.78;100.00
12172;BME280;6149;52.418;13.668;2024-02-26T08:04:42;100118.88;;;0.88;100.00
12172;BME280;6149;52.418;13.668;2024-02-26T08:07:09;100121.13;;;1.05;100.00
12172;BME280;6149;52.418;13.668;2024-02-26T08:09:35;100118.22;;;1.17;100.00
12172;BME280;6149;52.418;13.668;2024-02-26T08:12:02;100114.53;;;1.27;100.00
12172;BME280;6149;52.418;13.668;2024-02-26T08:14:30;100115.97;;;1.40;100.00
12172;BME280;6149;52.418;13.668;2024-02-26T08:16:57;100120.88;;;1.52;100.00
12172;BME280;6149;52.418;13.668;2024-02-26T08:19:24;100121.50;;;1.62;100.00
12172;BME280;6149;52.418;13.668;2024-02-26T08:21:52;100119.50;;;1.73;100.00
12172;BME280;6149;52.418;13.668;2024-02-26T08:24:18;100121.84;;;1.84;100.00
12172;BME280;6149;52.418;13.668;2024-02-26T08:26:45;100124.03;;;1.99;100.00
12172;BME280;6149;52.418;13.668;2024-02-26T08:29:11;100122.75;;;2.15;100.00
12172;BME280;6149;52.418;13.668;2024-02-26T08:31:38;100113.63;;;2.30;100.00
12172;BME280;6149;52.418;13.668;2024-02-26T08:34:04;100123.59;;;2.48;100.00
12172;BME280;6149;52.418;13.668;2024-02-26T08:36:33;100128.31;;;2.65;100.00
12172;BME280;6149;52.418;13.668;2024-02-26T08:39:02;100118.28;;;2.81;100.00
12172;BME280;6149;52.418;13.668;2024-02-26T08:41:29;100120.38;;;2.97;100.00
12172;BME280;6149;52.418;13.668;2024-02-26T08:43:55;100113.63;;;3.20;100.00
12172;BME280;6149;52.418;13.668;2024-02-26T08:46:23;100112.41;;;3.31;100.00
12172;BME280;6149;52.418;13.668;2024-02-26T08:48:50;100113.75;;;3.43;100.00
12172;BME280;6149;52.418;13.668;2024-02-26T08:51:17;100113.16;;;3.61;100.00
12172;BME280;6149;52.418;13.668;2024-02-26T08:53:43;100106.88;;;3.67;100.00
12172;BME280;6149;52.418;13.668;2024-02-26T08:56:12;100109.03;;;3.81;100.00
12172;BME280;6149;52.418;13.668;2024-02-26T08:58:42;100111.13;;;3.96;100.00
12172;BME280;6149;52.418;13.668;2024-02-26T09:01:08;100109.72;;;4.11;100.00
12172;BME280;6149;52.418;13.668;2024-02-26T09:03:35;100102.31;;;4.23;100.00
12172;BME280;6149;52.418;13.668;2024-02-26T09:06:01;100110.53;;;4.38;100.00
12172;BME280;6149;52.418;13.668;2024-02-26T09:08:28;100104.00;;;4.49;100.00
12172;BME280;6149;52.418;13.668;2024-02-26T09:10:55;100100.06;;;4.61;100.00
12172;BME280;6149;52.418;13.668;2024-02-26T09:13:22;100104.06;;;4.71;100.00
12172;BME280;6149;52.418;13.668;2024-02-26T09:15:49;100104.59;;;4.81;100.00
12172;BME280;6149;52.418;13.668;2024-02-26T09:18:16;100114.75;;;4.88;100.00
12172;BME280;6149;52.418;13.668;2024-02-26T09:20:43;100116.28;;;4.94;100.00
12172;BME280;6149;52.418;13.668;2024-02-26T09:23:09;100107.22;;;5.02;100.00
12172;BME280;6149;52.418;13.668;2024-02-26T09:25:36;100112.91;;;5.14;100.00
12172;BME280;6149;52.418;13.668;2024-02-26T09:28:02;100107.19;;;5.26;100.00
12172;BME280;6149;52.418;13.668;2024-02-26T09:30:31;100125.94;;;5.59;100.00
12172;BME280;6149;52.418;13.668;2024-02-26T09:32:57;100115.88;;;5.70;100.00
12172;BME280;6149;52.418;13.668;2024-02-26T09:35:24;100121.50;;;5.83;100.00
12172;BME280;6149;52.418;13.668;2024-02-26T09:37:52;100127.19;;;5.94;100.00
12172;BME280;6149;52.418;13.668;2024-02-26T09:40:19;100127.31;;;6.11;100.00
12172;BME280;6149;52.418;13.668;2024-02-26T09:42:45;100131.72;;;6.31;100.00
12172;BME280;6149;52.418;13.668;2024-02-26T09:45:17;100128.13;;;6.52;100.00
12172;BME280;6149;52.418;13.668;2024-02-26T09:47:48;100133.34;;;6.72;100.00
12172;BME280;6149;52.418;13.668;2024-02-26T09:50:16;100136.78;;;6.93;100.00
12172;BME280;6149;52.418;13.668;2024-02-26T09:52:47;100138.28;;;7.18;100.00
12172;BME280;6149;52.418;13.668;2024-02-26T09:55:15;100133.41;;;7.46;100.00
12172;BME280;6149;52.418;13.668;2024-02-26T09:57:45;100135.16;;;7.64;100.00
12172;BME280;6149;52.418;13.668;2024-02-26T10:00:15;100145.69;;;7.82;100.00
12172;BME280;6149;52.418;13.668;2024-02-26T10:02:46;100135.50;;;7.93;100.00
12172;BME280;6149;52.418;13.668;2024-02-26T10:05:14;100137.84;;;7.99;100.00
12172;BME280;6149;52.418;13.668;2024-02-26T10:07:44;100142.94;;;8.02;100.00
12172;BME280;6149;52.418;13.668;2024-02-26T10:10:11;100156.03;;;8.21;100.00
12172;BME280;6149;52.418;13.668;2024-02-26T10:12:37;100155.94;;;8.22;100.00
12172;BME280;6149;52.418;13.668;2024-02-26T10:15:04;100151.16;;;8.30;100.00
12172;BME280;6149;52.418;13.668;2024-02-26T10:17:31;100151.34;;;8.45;100.00
12172;BME280;6149;52.418;13.668;2024-02-26T10:20:12;100151.09;;;8.49;100.00
12172;BME280;6149;52.418;13.668;2024-02-26T10:22:39;100155.47;;;8.66;100.00
12172;BME280;6149;52.418;13.668;2024-02-26T10:25:07;100159.41;;;8.75;100.00
12172;BME280;6149;52.418;13.668;2024-02-26T10:27:34;100163.13;;;9.03;100.00
12172;BME280;6149;52.418;13.668;2024-02-26T10:30:02;100152.50;;;9.05;100.00
12172;BME280;6149;52.418;13.668;2024-02-26T10:32:30;100149.38;;;9.14;100.00
12172;BME280;6149;52.418;13.668;2024-02-26T10:34:57;100151.59;;;9.22;100.00
12172;BME280;6149;52.418;13.668;2024-02-26T10:37:25;100141.44;;;9.30;100.00
12172;BME280;6149;52.418;13.668;2024-02-26T10:39:52;100147.75;;;9.59;100.00
12172;BME280;6149;52.418;13.668;2024-02-26T10:42:19;100148.84;;;9.70;100.00
12172;BME280;6149;52.418;13.668;2024-02-26T10:44:46;100146.78;;;9.76;100.00
12172;BME280;6149;52.418;13.668;2024-02-26T10:47:14;100137.66;;;9.81;100.00
12172;BME280;6149;52.418;13.668;2024-02-26T10:49:45;100144.03;;;9.93;100.00
12172;BME280;6149;52.418;13.668;2024-02-26T10:52:13;100140.91;;;9.86;100.00
12172;BME280;6149;52.418;13.668;2024-02-26T10:54:43;100143.78;;;9.97;100.00
12172;BME280;6149;52.418;13.668;2024-02-26T10:57:15;100141.22;;;9.96;100.00
12172;BME280;6149;52.418;13.668;2024-02-26T10:59:42;100142.53;;;10.03;100.00
12172;BME280;6149;52.418;13.668;2024-02-26T11:02:10;100143.91;;;10.10;100.00
12172;BME280;6149;52.418;13.668;2024-02-26T11:04:37;100138.69;;;10.24;100.00
12172;BME280;6149;52.418;13.668;2024-02-26T11:07:05;100145.41;;;10.30;100.00
12172;BME280;6149;52.418;13.668;2024-02-26T11:09:32;100146.44;;;10.42;100.00
12172;BME280;6149;52.418;13.668;2024-02-26T11:12:02;100147.13;;;10.45;100.00
12172;BME280;6149;52.418;13.668;2024-02-26T11:14:35;100151.47;;;10.46;100.00
12172;BME280;6149;52.418;13.668;2024-02-26T11:17:02;100150.25;;;10.52;100.00
12172;BME280;6149;52.418;13.668;2024-02-26T11:19:30;100141.88;;;10.59;100.00
12172;BME280;6149;52.418;13.668;2024-02-26T11:21:57;100149.25;;;10.68;100.00
12172;BME280;6149;52.418;13.668;2024-02-26T11:24:32;100141.03;;;10.73;100.00
12172;BME280;6149;52.418;13.668;2024-02-26T11:27:09;100145.06;;;10.79;100.00
12172;BME280;6149;52.418;13.668;2024-02-26T11:29:43;100148.00;;;11.02;100.00
12172;BME280;6149;52.418;13.668;2024-02-26T11:32:14;100155.56;;;10.94;100.00
12172;BME280;6149;52.418;13.668;2024-02-26T11:34:41;100151.78;;;10.98;100.00
12172;BME280;6149;52.418;13.668;2024-02-26T11:37:10;100151.59;;;11.01;100.00
12172;BME280;6149;52.418;13.668;2024-02-26T11:39:39;100151.50;;;11.03;100.00
12172;BME280;6149;52.418;13.668;2024-02-26T11:42:08;100147.16;;;11.02;100.00
12172;BME280;6149;52.418;13.668;2024-02-26T11:44:36;100155.38;;;10.97;100.00
12172;BME280;6149;52.418;13.668;2024-02-26T11:47:12;100153.78;;;10.95;100.00
12172;BME280;6149;52.418;13.668;2024-02-26T11:49:40;100158.03;;;10.97;100.00
12172;BME280;6149;52.418;13.668;2024-02-26T11:52:08;100145.09;;;10.93;100.00
12172;BME280;6149;52.418;13.668;2024-02-26T11:54:46;100146.59;;;10.97;100.00
12172;BME280;6149;52.418;13.668;2024-02-26T11:57:23;100153.78;;;11.09;100.00
12172;BME280;6149;52.418;13.668;2024-02-26T11:59:50;100145.84;;;11.09;100.00
12172;BME280;6149;52.418;13.668;2024-02-26T12:05:26;100151.88;;;11.11;100.00
12172;BME280;6149;52.418;13.668;2024-02-26T12:08:00;100155.66;;;11.07;100.00
12172;BME280;6149;52.418;13.668;2024-02-26T12:10:31;100150.56;;;11.04;100.00
12172;BME280;6149;52.418;13.668;2024-02-26T12:13:05;100146.22;;;11.03;100.00
12172;BME280;6149;52.418;13.668;2024-02-26T12:15:36;100150.09;;;10.97;100.00
12172;BME280;6149;52.418;13.668;2024-02-26T12:18:04;100144.22;;;10.92;100.00
12172;BME280;6149;52.418;13.668;2024-02-26T12:20:33;100137.16;;;10.93;100.00
12172;BME280;6149;52.418;13.668;2024-02-26T12:23:01;100143.19;;;10.95;100.00
12172;BME280;6149;52.418;13.668;2024-02-26T12:25:29;100143.56;;;10.89;100.00
12172;BME280;6149;52.418;13.668;2024-02-26T12:27:58;100143.94;;;10.83;100.00
12172;BME280;6149;52.418;13.668;2024-02-26T12:30:27;100150.28;;;10.94;100.00
12172;BME280;6149;52.418;13.668;2024-02-26T12:32:55;100148.19;;;10.85;100.00
12172;BME280;6149;52.418;13.668;2024-02-26T12:35:24;100151.31;;;10.78;100.00
12172;BME280;6149;52.418;13.668;2024-02-26T12:37:51;100150.56;;;10.76;100.00
12172;BME280;6149;52.418;13.668;2024-02-26T12:40:19;100148.78;;;10.76;100.00
12172;BME280;6149;52.418;13.668;2024-02-26T12:42:45;100161.50;;;10.84;100.00
12172;BME280;6149;52.418;13.668;2024-02-26T12:45:13;100159.25;;;10.78;100.00
12172;BME280;6149;52.418;13.668;2024-02-26T12:47:43;100172.59;;;10.76;100.00
12172;BME280;6149;52.418;13.668;2024-02-26T12:50:11;100168.69;;;10.67;100.00